createdAt,value
2022-12-26T00:01:47.916Z,9.00
2022-12-26T00:05:09.704Z,9.00
2022-12-26T00:08:31.247Z,8.90
2022-12-26T00:11:52.810Z,8.90
2022-12-26T00:15:15.713Z,8.80
2022-12-26T00:18:37.305Z,8.90
2022-12-26T00:21:58.853Z,8.90
2022-12-26T00:25:20.414Z,9.00
2022-12-26T00:28:42.139Z,8.90
2022-12-26T00:32:05.266Z,8.90
2022-12-26T00:35:26.870Z,8.80
2022-12-26T00:38:48.512Z,8.80
2022-12-26T00:42:10.039Z,8.80
2022-12-26T00:45:31.590Z,8.70
2022-12-26T00:48:54.546Z,8.80
2022-12-26T00:55:38.180Z,8.80
2022-12-26T00:58:59.711Z,8.70
2022-12-26T01:02:21.317Z,8.70
2022-12-26T01:05:45.087Z,8.70
2022-12-26T01:09:06.664Z,8.70
2022-12-26T01:12:28.207Z,8.80
2022-12-26T01:15:50.249Z,8.80
2022-12-26T01:19:12.241Z,8.80
2022-12-26T01:22:35.223Z,8.80
2022-12-26T01:26:16.615Z,8.90
2022-12-26T01:29:38.316Z,9.00
2022-12-26T01:32:59.861Z,9.00
2022-12-26T01:36:21.467Z,9.20
2022-12-26T01:39:44.365Z,9.10
2022-12-26T01:43:09.917Z,9.20
2022-12-26T01:46:33.593Z,9.20
2022-12-26T01:49:55.347Z,9.20
2022-12-26T01:53:18.486Z,9.20
2022-12-26T01:56:43.338Z,9.10
2022-12-26T02:00:05.979Z,9.10
2022-12-26T02:03:27.650Z,9.10
2022-12-26T02:06:49.706Z,9.10
2022-12-26T02:10:13.680Z,9.10
2022-12-26T02:13:37.778Z,9.20
2022-12-26T02:16:59.464Z,9.20
2022-12-26T02:20:22.451Z,9.30
2022-12-26T02:23:58.875Z,9.30
2022-12-26T02:27:35.279Z,9.30
2022-12-26T02:31:00.845Z,9.30
2022-12-26T02:34:27.689Z,9.20
2022-12-26T02:37:56.868Z,9.20
2022-12-26T02:41:23.736Z,9.20
2022-12-26T02:44:48.603Z,9.20
2022-12-26T02:48:15.157Z,9.40
2022-12-26T02:51:43.024Z,9.40
2022-12-26T02:55:06.089Z,9.50
2022-12-26T02:58:30.983Z,9.50
2022-12-26T03:01:55.999Z,9.60
2022-12-26T03:05:21.956Z,9.60
2022-12-26T03:08:46.622Z,9.60
2022-12-26T03:12:10.489Z,9.60
2022-12-26T03:15:32.150Z,9.60
2022-12-26T03:18:57.705Z,9.70
2022-12-26T03:22:23.356Z,9.80
2022-12-26T03:25:46.465Z,9.90
2022-12-26T03:29:09.085Z,9.90
2022-12-26T03:32:41.439Z,9.90
2022-12-26T03:36:03.687Z,9.90
2022-12-26T03:39:31.838Z,9.90
2022-12-26T03:42:57.910Z,9.90
2022-12-26T03:46:25.054Z,9.90
2022-12-26T03:49:47.896Z,9.90
2022-12-26T03:53:12.495Z,9.90
2022-12-26T03:56:38.642Z,9.80
2022-12-26T04:00:02.301Z,9.80
2022-12-26T04:03:24.772Z,9.70
2022-12-26T04:06:51.199Z,9.70
2022-12-26T04:10:14.469Z,9.80
2022-12-26T04:13:40.122Z,10.00
2022-12-26T04:17:03.495Z,10.10
2022-12-26T04:20:26.810Z,10.30
2022-12-26T04:23:49.704Z,10.40
2022-12-26T04:27:13.099Z,10.50
2022-12-26T04:30:38.474Z,10.60
2022-12-26T04:34:01.137Z,10.60
2022-12-26T04:37:24.912Z,10.70
2022-12-26T04:40:49.308Z,10.70
2022-12-26T04:44:11.595Z,10.90
2022-12-26T04:47:34.615Z,10.90
2022-12-26T04:50:56.220Z,10.90
2022-12-26T04:54:18.021Z,11.00
2022-12-26T04:57:39.580Z,11.00
2022-12-26T05:01:03.026Z,11.00
2022-12-26T05:04:26.020Z,11.00
2022-12-26T05:07:47.591Z,11.00
2022-12-26T05:11:09.119Z,10.90
2022-12-26T05:14:30.688Z,10.90
2022-12-26T05:17:52.237Z,10.90
2022-12-26T05:21:17.969Z,10.80
2022-12-26T05:24:40.719Z,10.70
2022-12-26T05:28:02.596Z,10.50
2022-12-26T05:31:27.203Z,10.30
2022-12-26T05:34:51.394Z,10.10
2022-12-26T05:38:14.288Z,10.00
2022-12-26T05:41:36.080Z,10.00
2022-12-26T05:44:57.640Z,10.10
2022-12-26T05:48:19.169Z,10.10
2022-12-26T05:51:40.717Z,10.10
2022-12-26T05:55:03.852Z,10.10
2022-12-26T05:58:25.393Z,10.10
2022-12-26T06:01:47.024Z,10.00
2022-12-26T06:05:09.106Z,10.00
2022-12-26T06:08:30.987Z,10.00
2022-12-26T06:11:53.872Z,10.00
2022-12-26T06:15:15.405Z,9.90
2022-12-26T06:18:37.283Z,9.90
2022-12-26T06:21:58.840Z,9.90
2022-12-26T06:25:20.420Z,10.00
2022-12-26T06:28:43.585Z,10.00
2022-12-26T06:32:05.627Z,10.00
2022-12-26T06:35:27.294Z,10.10
2022-12-26T06:38:49.019Z,10.10
2022-12-26T06:42:10.583Z,10.10
2022-12-26T06:45:34.129Z,10.20
2022-12-26T06:48:55.677Z,10.20
2022-12-26T06:52:17.204Z,10.30
2022-12-26T06:55:38.813Z,10.30
2022-12-26T06:59:01.085Z,10.30
2022-12-26T07:02:24.186Z,10.30
2022-12-26T07:05:45.873Z,10.30
2022-12-26T07:09:08.412Z,10.30
2022-12-26T07:12:29.935Z,10.20
2022-12-26T07:15:51.489Z,10.10
2022-12-26T07:19:14.934Z,10.10
2022-12-26T07:22:36.520Z,10.10
2022-12-26T07:25:58.075Z,10.10
2022-12-26T07:29:19.647Z,10.10
2022-12-26T07:32:41.195Z,10.00
2022-12-26T07:36:05.544Z,10.00
2022-12-26T07:39:27.082Z,10.00
2022-12-26T07:42:48.763Z,10.00
2022-12-26T07:46:10.550Z,10.00
2022-12-26T07:49:32.139Z,10.00
2022-12-26T07:52:55.364Z,10.00
2022-12-26T07:56:16.935Z,10.00
2022-12-26T07:59:38.515Z,10.00
2022-12-26T08:03:06.797Z,9.90
2022-12-26T08:06:29.146Z,9.90
2022-12-26T08:09:52.089Z,9.90
2022-12-26T08:13:13.649Z,9.90
2022-12-26T08:16:35.269Z,9.90
2022-12-26T08:19:56.832Z,9.80
2022-12-26T08:23:18.697Z,9.80
2022-12-26T08:26:41.586Z,9.70
2022-12-26T08:30:04.034Z,9.70
2022-12-26T08:33:25.810Z,9.60
2022-12-26T08:36:50.134Z,9.50
2022-12-26T08:40:12.915Z,9.50
2022-12-26T08:47:17.421Z,9.50
2022-12-26T08:50:41.544Z,9.60
2022-12-26T08:54:03.516Z,9.60
2022-12-26T08:57:25.052Z,9.70
2022-12-26T09:00:54.943Z,9.70
2022-12-26T09:04:17.161Z,9.70
2022-12-26T09:07:38.761Z,9.70
2022-12-26T09:11:01.811Z,9.70
2022-12-26T09:14:23.452Z,9.70
2022-12-26T09:17:46.452Z,9.70
2022-12-26T09:21:09.422Z,9.60
2022-12-26T09:24:32.334Z,9.70
2022-12-26T09:27:58.734Z,9.60
2022-12-26T09:31:22.614Z,9.60
2022-12-26T09:34:48.086Z,9.60
2022-12-26T09:38:09.634Z,9.60
2022-12-26T09:41:36.311Z,9.70
2022-12-26T09:45:00.469Z,9.70
2022-12-26T09:48:26.638Z,9.70
2022-12-26T09:51:50.828Z,9.70
2022-12-26T09:55:19.466Z,9.70
2022-12-26T09:58:46.239Z,9.70
2022-12-26T10:02:17.389Z,9.70
2022-12-26T10:05:41.635Z,9.70
2022-12-26T10:09:10.048Z,9.70
2022-12-26T10:12:36.437Z,9.70
2022-12-26T10:15:59.563Z,9.70
2022-12-26T10:19:32.640Z,9.70
2022-12-26T10:23:15.253Z,9.70
2022-12-26T10:26:39.754Z,9.70
2022-12-26T10:30:03.228Z,9.70
2022-12-26T10:33:33.330Z,9.70
2022-12-26T10:36:58.331Z,9.70
2022-12-26T10:40:21.771Z,9.80
2022-12-26T10:43:44.682Z,9.70
2022-12-26T10:47:11.826Z,9.70
2022-12-26T10:50:34.569Z,9.70
2022-12-26T10:53:56.171Z,9.70
2022-12-26T10:57:18.065Z,9.70
2022-12-26T11:00:40.988Z,9.80
2022-12-26T11:04:03.836Z,9.70
2022-12-26T11:07:25.981Z,9.60
2022-12-26T11:11:02.681Z,9.60
2022-12-26T11:14:34.807Z,9.60
2022-12-26T11:18:06.955Z,9.70
2022-12-26T11:21:29.405Z,9.70
2022-12-26T11:25:08.590Z,9.70
2022-12-26T11:28:31.401Z,9.80
2022-12-26T11:31:54.091Z,9.90
2022-12-26T11:35:18.487Z,9.90
2022-12-26T11:38:45.674Z,10.10
2022-12-26T11:42:21.044Z,9.90
2022-12-26T11:45:44.402Z,9.80
2022-12-26T11:49:07.302Z,9.80
2022-12-26T11:52:38.172Z,9.80
2022-12-26T11:56:01.169Z,9.80
2022-12-26T11:59:22.765Z,9.80
2022-12-26T12:02:44.388Z,9.80
2022-12-26T12:06:09.681Z,9.90
2022-12-26T12:09:37.549Z,9.90
2022-12-26T12:13:02.793Z,9.90
2022-12-26T12:16:34.385Z,10.00
2022-12-26T12:20:02.661Z,10.10
2022-12-26T12:23:30.959Z,10.10
2022-12-26T12:27:00.187Z,10.20
2022-12-26T12:30:30.484Z,10.30
2022-12-26T12:33:56.212Z,10.30
2022-12-26T12:37:24.954Z,10.20
2022-12-26T12:40:50.018Z,10.10
2022-12-26T12:44:16.859Z,10.10
2022-12-26T12:47:43.376Z,10.00
2022-12-26T12:51:09.540Z,10.00
2022-12-26T12:54:41.822Z,10.00
2022-12-26T12:58:06.451Z,10.00
2022-12-26T13:01:32.896Z,10.00
2022-12-26T13:04:59.431Z,10.00
2022-12-26T13:08:22.508Z,10.10
2022-12-26T13:11:45.873Z,10.10
2022-12-26T13:15:08.924Z,10.00
2022-12-26T13:18:35.441Z,10.00
2022-12-26T13:22:00.096Z,10.00
2022-12-26T13:25:23.104Z,10.00
2022-12-26T13:28:48.644Z,10.00
2022-12-26T13:32:16.356Z,9.90
2022-12-26T13:35:52.431Z,9.90
2022-12-26T13:39:19.706Z,9.90
2022-12-26T13:42:44.924Z,10.00
2022-12-26T13:46:27.298Z,9.90
2022-12-26T13:49:50.214Z,9.90
2022-12-26T13:53:23.489Z,9.90
2022-12-26T13:57:15.281Z,9.90
2022-12-26T14:00:42.444Z,10.00
2022-12-26T14:04:18.910Z,10.00
2022-12-26T14:07:44.250Z,10.00
2022-12-26T14:11:13.617Z,9.90
2022-12-26T14:14:41.556Z,9.90
2022-12-26T14:18:10.906Z,9.90
2022-12-26T14:21:37.859Z,9.90
2022-12-26T14:25:04.090Z,9.80
2022-12-26T14:28:29.205Z,9.80
2022-12-26T14:32:10.874Z,9.80
2022-12-26T14:35:35.769Z,9.80
2022-12-26T14:39:02.654Z,9.80
2022-12-26T14:42:26.034Z,9.80
2022-12-26T14:45:48.737Z,9.80
2022-12-26T14:49:18.090Z,9.80
2022-12-26T14:52:39.710Z,9.80
2022-12-26T14:56:02.067Z,9.80
2022-12-26T14:59:30.098Z,9.80
2022-12-26T15:03:09.386Z,9.70
2022-12-26T15:06:40.697Z,9.70
2022-12-26T15:10:22.468Z,9.60
2022-12-26T15:14:04.670Z,9.60
2022-12-26T15:17:31.395Z,9.60
2022-12-26T15:21:03.005Z,9.60
2022-12-26T15:25:16.567Z,9.50
2022-12-26T15:28:48.764Z,9.50
2022-12-26T15:32:15.886Z,9.50
2022-12-26T15:35:46.377Z,9.40
2022-12-26T15:39:16.516Z,9.50
2022-12-26T15:42:42.164Z,9.40
2022-12-26T15:46:07.991Z,9.50
2022-12-26T15:49:48.165Z,9.40
2022-12-26T15:53:18.926Z,9.40
2022-12-26T15:56:48.827Z,9.40
2022-12-26T16:00:12.049Z,9.40
2022-12-26T16:03:36.636Z,9.40
2022-12-26T16:07:06.726Z,9.30
2022-12-26T16:10:30.659Z,9.30
2022-12-26T16:13:55.994Z,9.20
2022-12-26T16:17:22.455Z,9.20
2022-12-26T16:20:46.260Z,9.20
2022-12-26T16:24:08.337Z,9.20
2022-12-26T16:27:34.977Z,9.20
2022-12-26T16:30:57.074Z,9.10
2022-12-26T16:34:20.039Z,9.10
2022-12-26T16:37:42.221Z,9.10
2022-12-26T16:41:06.753Z,9.00
2022-12-26T16:44:31.109Z,9.00
2022-12-26T16:47:54.040Z,9.00
2022-12-26T16:51:39.475Z,8.90
2022-12-26T16:55:19.655Z,8.90
2022-12-26T16:58:41.821Z,8.90
2022-12-26T17:02:05.235Z,8.90
2022-12-26T17:05:30.479Z,8.90
2022-12-26T17:08:52.193Z,8.90
2022-12-26T17:12:18.975Z,9.00
2022-12-26T17:15:48.292Z,8.90
2022-12-26T17:19:16.830Z,8.90
2022-12-26T17:22:38.388Z,8.90
2022-12-26T17:26:21.221Z,8.90
2022-12-26T17:29:49.034Z,8.80
2022-12-26T17:33:12.725Z,8.80
2022-12-26T17:40:22.002Z,8.80
2022-12-26T17:43:43.994Z,8.80
2022-12-26T17:47:14.477Z,8.90
2022-12-26T17:50:38.068Z,8.90
2022-12-26T17:54:01.966Z,9.00
2022-12-26T17:57:24.196Z,9.10
2022-12-26T18:00:45.765Z,9.10
2022-12-26T18:04:08.479Z,9.10
2022-12-26T18:07:31.693Z,9.10
2022-12-26T18:10:54.919Z,9.10
2022-12-26T18:14:17.001Z,8.90
2022-12-26T18:17:39.115Z,8.80
2022-12-26T18:21:00.956Z,8.70
2022-12-26T18:24:23.149Z,8.70
2022-12-26T18:27:53.185Z,8.60
2022-12-26T18:31:15.444Z,8.50
2022-12-26T18:34:36.995Z,8.40
2022-12-26T18:37:58.613Z,8.40
2022-12-26T18:41:21.574Z,8.30
2022-12-26T18:44:47.327Z,8.20
2022-12-26T18:48:12.304Z,8.10
2022-12-26T18:51:33.877Z,8.00
2022-12-26T18:54:55.409Z,7.90
2022-12-26T18:58:16.980Z,7.90
2022-12-26T19:01:40.105Z,7.80
2022-12-26T19:05:01.766Z,7.80
2022-12-26T19:08:23.322Z,7.70
2022-12-26T19:11:45.172Z,7.70
2022-12-26T19:15:07.271Z,7.60
2022-12-26T19:18:30.438Z,7.60
2022-12-26T19:21:52.070Z,7.60
2022-12-26T19:25:13.719Z,7.60
2022-12-26T19:28:35.293Z,7.50
2022-12-26T19:31:56.906Z,7.50
2022-12-26T19:35:20.413Z,7.50
2022-12-26T19:38:41.979Z,7.50
2022-12-26T19:42:03.615Z,7.60
2022-12-26T19:45:26.849Z,7.60
2022-12-26T19:48:48.883Z,7.50
2022-12-26T19:52:12.489Z,7.60
2022-12-26T19:55:34.111Z,7.60
2022-12-26T19:58:56.917Z,7.70
2022-12-26T20:02:18.864Z,7.70
2022-12-26T20:05:40.570Z,7.70
2022-12-26T20:09:04.653Z,7.70
2022-12-26T20:12:26.211Z,7.70
2022-12-26T20:15:47.821Z,7.70
2022-12-26T20:19:13.064Z,7.70
2022-12-26T20:22:38.629Z,7.80
2022-12-26T20:26:10.496Z,7.80
2022-12-26T20:29:32.800Z,7.70
2022-12-26T20:32:54.392Z,7.70
2022-12-26T20:36:16.988Z,7.60
2022-12-26T20:39:38.545Z,7.60
2022-12-26T20:43:01.681Z,7.60
2022-12-26T20:46:25.763Z,7.60
2022-12-26T20:49:49.277Z,7.60
2022-12-26T20:53:11.354Z,7.60
2022-12-26T20:56:33.662Z,7.60
2022-12-26T20:59:56.641Z,7.60
2022-12-26T21:03:18.291Z,7.50
2022-12-26T21:06:40.043Z,7.60
2022-12-26T21:10:01.677Z,7.60
2022-12-26T21:13:23.343Z,7.50
2022-12-26T21:16:47.764Z,7.50
2022-12-26T21:20:09.765Z,7.50
2022-12-26T21:23:39.278Z,7.50
2022-12-26T21:27:02.510Z,7.50
2022-12-26T21:30:24.051Z,7.50
2022-12-26T21:33:46.963Z,7.50
2022-12-26T21:37:08.517Z,7.50
2022-12-26T21:40:30.057Z,7.50
2022-12-26T21:43:53.625Z,7.40
2022-12-26T21:47:15.380Z,7.40
2022-12-26T21:50:38.278Z,7.30
2022-12-26T21:54:00.163Z,7.30
2022-12-26T21:57:21.787Z,7.10
2022-12-26T22:00:43.346Z,7.00
2022-12-26T22:04:04.892Z,6.80
2022-12-26T22:07:28.345Z,6.80
2022-12-26T22:10:50.070Z,6.60
2022-12-26T22:14:12.419Z,6.60
2022-12-26T22:17:34.162Z,6.50
2022-12-26T22:20:55.754Z,6.50
2022-12-26T22:24:18.668Z,6.50
2022-12-26T22:27:41.442Z,6.40
2022-12-26T22:31:03.206Z,6.40
2022-12-26T22:34:25.268Z,6.30
2022-12-26T22:37:47.108Z,6.30
2022-12-26T22:41:10.178Z,6.20
2022-12-26T22:44:31.720Z,6.20
2022-12-26T22:47:53.311Z,6.20
2022-12-26T22:51:15.721Z,6.20
2022-12-26T22:54:37.272Z,6.20
2022-12-26T22:58:02.255Z,6.20
2022-12-26T23:01:24.521Z,6.10
2022-12-26T23:04:46.559Z,6.10
2022-12-26T23:08:10.742Z,6.10
2022-12-26T23:11:34.979Z,6.00
2022-12-26T23:14:58.555Z,5.90
2022-12-26T23:18:25.648Z,5.80
2022-12-26T23:21:52.489Z,5.70
2022-12-26T23:25:14.081Z,5.50
2022-12-26T23:28:35.630Z,5.50
2022-12-26T23:31:58.616Z,5.50
2022-12-26T23:35:20.875Z,5.50
2022-12-26T23:38:42.422Z,5.70
2022-12-26T23:42:04.120Z,5.80
2022-12-26T23:45:25.682Z,5.90
2022-12-26T23:48:48.588Z,5.90
2022-12-26T23:52:10.180Z,5.90
2022-12-26T23:55:32.331Z,5.80
2022-12-26T23:58:54.125Z,5.80
